Flight Track Log - Related Links

Times and Time Zones

All times are in EDT time to prevent confusion due to time zone crossing. See the AAR8735 flight status page for this flight to view local times or setup timezone preferences in your user account.

Time Position Orientation Groundspeed Altitude Reporting Facility
EDT Latitude Longitude Course Direction KTS MPH feet Rate Location/Type
Sun 02:50:16 AM 37.4920 126.8700 159° South 221 254 4,600  Level FlightAware ADS-B
Sun 02:50:36 AM 37.4700 126.8780 164° South 257 296 5,400 1,756 Climbing FlightAware ADS-B
Sun 02:50:57 AM 37.4510 126.8860 162° South 269 310 5,800 750 Climbing FlightAware ADS-B
Sun 02:51:16 AM 37.4240 126.8960 164° South 269 310 5,900 414 Climbing FlightAware ADS-B
Sun 02:51:26 AM 37.4110 126.8980 173° South 261 300 6,000 1,600 Climbing FlightAware ADS-B
Sun 02:51:46 AM 37.3850 126.8990 178° South 273 314 6,700 3,300 Climbing FlightAware ADS-B
Sun 02:52:06 AM 37.3590 126.9000 178° South 274 315 8,200 4,114 Climbing FlightAware ADS-B
Sun 02:52:21 AM 37.3410 126.9010 177° South 278 320 9,100 4,080 Climbing FlightAware ADS-B
Sun 02:52:56 AM 37.2960 126.9030 178° South 259 298 11,600 3,771 Climbing FlightAware ADS-B
Sun 02:53:31 AM 37.2540 126.9050 178° South 273 314 13,500 2,769 Climbing FlightAware ADS-B
Sun 02:54:14 AM 37.2000 126.9070 178° South 281 323 15,200 1,765 Climbing FlightAware ADS-B
Sun 02:54:56 AM 37.1370 126.9100 178° South 321 369 16,000 667 Climbing FlightAware ADS-B
Sun 02:55:26 AM 37.0950 126.9120 178° South 324 373 16,000  Level FlightAware ADS-B
Sun 02:56:09 AM 37.0370 126.9150 178° South 324 373 16,000  Level FlightAware ADS-B
Sun 02:56:45 AM 36.9920 126.9180 177° South 324 373 16,000  Level FlightAware ADS-B
Sun 02:57:21 AM 36.9460 126.9210 177° South 324 373 16,000  Level FlightAware ADS-B
Sun 02:57:58 AM 36.8990 126.9250 176° South 324 373 16,000  Level FlightAware ADS-B
Sun 02:58:34 AM 36.8530 126.9270 178° South 324 373 16,000  Level FlightAware ADS-B
Sun 02:59:10 AM 36.8070 126.9300 177° South 324 373 16,000  Level FlightAware ADS-B
Sun 03:01:00 AM 36.6697 126.9790 164° South  Level Estimated
Sun 03:02:00 AM 36.5947 127.0057 164° South  Level Estimated
Sun 03:03:00 AM 36.5198 127.0323 164° South  Level Estimated
Sun 03:04:00 AM 36.4449 127.0588 164° South  Level Estimated
Sun 03:05:00 AM 36.3700 127.0854 164° South  Level Estimated
Sun 03:06:00 AM 36.2950 127.1118 164° South  Level Estimated
Sun 03:07:00 AM 36.2201 127.1382 164° South  Level Estimated
Sun 03:08:00 AM 36.1451 127.1646 164° South  Level Estimated
Sun 03:09:00 AM 36.0702 127.1908 164° South  Level Estimated
Sun 03:10:00 AM 35.9952 127.2171 164° South  Level Estimated
Sun 03:11:00 AM 35.9202 127.2433 164° South  Level Estimated
Sun 03:12:00 AM 35.8453 127.2694 164° South  Level Estimated
Sun 03:13:00 AM 35.7703 127.2955 164° South  Level Estimated
Sun 03:14:00 AM 35.6953 127.3216 164° South  Level Estimated
Sun 03:15:00 AM 35.6203 127.3476 164° South  Level Estimated
Sun 03:16:00 AM 35.5453 127.3736 164° South  Level Estimated
Sun 03:17:00 AM 35.4703 127.3995 164° South  Level Estimated
Sun 03:18:00 AM 35.3953 127.4253 164° South  Level Estimated
Sun 03:19:00 AM 35.3203 127.4512 164° South  Level Estimated
Sun 03:20:00 AM 35.2453 127.4769 164° South  Level Estimated
Sun 03:21:00 AM 35.1703 127.5026 164° South  Level Estimated
Sun 03:22:00 AM 35.0952 127.5283 164° South  Level Estimated
Sun 03:23:00 AM 35.0202 127.5539 164° South  Level Estimated
Sun 03:24:00 AM 34.9452 127.5795 164° South  Level Estimated
Sun 03:25:00 AM 34.8701 127.6050 164° South  Level Estimated
Sun 03:26:00 AM 34.8398 127.6153 164° South  Level Estimated
Sun 03:27:00 AM 34.8398 127.6153 180° South  Level Estimated
Sun 03:28:00 AM 34.8398 127.6153 180° South  Level Estimated
Sun 03:29:00 AM 34.8398 127.6153 180° South  Level Estimated
Sun 03:30:00 AM 34.8398 127.6153 180° South  Level Estimated
Sun 03:31:00 AM 34.8398 127.6153 180° South  Level Estimated
Sun 03:32:00 AM 34.8398 127.6153 180° South  Level Estimated
Sun 03:33:00 AM 34.8398 127.6153 180° South  Level Estimated

Login

Don't have an account? Register now (free) for customized features, flight alerts, and more!